createdAt,value
2022-08-07T00:02:35.192Z,16.85
2022-08-07T00:04:09.703Z,16.85
2022-08-07T00:06:47.276Z,16.85
2022-08-07T00:09:29.164Z,16.85
2022-08-07T00:12:03.156Z,16.87
2022-08-07T00:14:31.667Z,16.88
2022-08-07T00:17:01.685Z,16.84
2022-08-07T00:19:34.080Z,16.86
2022-08-07T00:22:24.663Z,16.88
2022-08-07T00:25:07.373Z,16.86
2022-08-07T00:27:53.253Z,16.88
2022-08-07T00:30:27.227Z,16.89
2022-08-07T00:32:58.352Z,16.88
2022-08-07T00:35:26.429Z,16.88
2022-08-07T00:37:54.354Z,16.84
2022-08-07T00:40:36.430Z,16.81
2022-08-07T00:44:01.151Z,16.76
2022-08-07T00:45:59.090Z,16.72
2022-08-07T00:48:31.861Z,16.70
2022-08-07T00:51:02.522Z,16.66
2022-08-07T00:53:38.934Z,16.60
2022-08-07T00:56:18.739Z,16.54
2022-08-07T00:58:49.855Z,16.47
2022-08-07T01:01:22.417Z,16.44
2022-08-07T01:03:56.509Z,16.41
2022-08-07T01:06:29.634Z,16.40
2022-08-07T01:09:01.148Z,16.37
2022-08-07T01:12:27.514Z,16.35
2022-08-07T01:14:29.118Z,16.30
2022-08-07T01:16:58.033Z,16.21
2022-08-07T01:19:32.300Z,16.18
2022-08-07T01:22:01.263Z,16.16
2022-08-07T01:24:36.713Z,16.18
2022-08-07T01:27:05.222Z,16.11
2022-08-07T01:29:47.588Z,15.99
2022-08-07T01:32:19.116Z,16.00
2022-08-07T01:34:50.943Z,16.02
2022-08-07T01:37:19.077Z,16.02
2022-08-07T01:39:51.161Z,16.00
2022-08-07T01:42:39.319Z,15.99
2022-08-07T01:45:18.187Z,15.96
2022-08-07T01:48:20.014Z,15.94
2022-08-07T01:50:45.738Z,15.94
2022-08-07T01:53:21.682Z,15.89
2022-08-07T01:56:09.391Z,15.87
2022-08-07T01:58:48.168Z,15.88
2022-08-07T02:01:59.480Z,15.86
2022-08-07T02:04:26.653Z,15.81
2022-08-07T02:07:01.897Z,15.75
2022-08-07T02:09:33.897Z,15.68
2022-08-07T02:12:30.974Z,15.62
2022-08-07T02:15:01.304Z,15.55
2022-08-07T02:17:40.185Z,15.59
2022-08-07T02:20:19.827Z,15.63
2022-08-07T02:23:03.601Z,15.64
2022-08-07T02:26:30.736Z,15.62
2022-08-07T02:28:27.148Z,15.62
2022-08-07T02:30:58.972Z,15.60
2022-08-07T02:33:32.904Z,15.58
2022-08-07T02:36:30.214Z,15.52
2022-08-07T02:39:16.082Z,15.45
2022-08-07T02:41:54.569Z,15.42
2022-08-07T02:44:27.542Z,15.37
2022-08-07T02:47:00.846Z,15.35
2022-08-07T02:49:59.060Z,15.42
2022-08-07T02:52:31.213Z,15.48
2022-08-07T02:56:02.347Z,15.50
2022-08-07T02:58:22.068Z,15.44
2022-08-07T03:00:58.576Z,15.42
2022-08-07T03:03:49.945Z,15.46
2022-08-07T03:06:25.942Z,15.45
2022-08-07T03:09:03.021Z,15.40
2022-08-07T03:11:38.659Z,15.36
2022-08-07T03:14:07.682Z,15.31
2022-08-07T03:16:36.403Z,15.27
2022-08-07T03:19:07.437Z,15.30
2022-08-07T03:21:37.372Z,15.39
2022-08-07T03:24:20.376Z,15.44
2022-08-07T03:27:00.561Z,15.44
2022-08-07T03:29:49.539Z,15.46
2022-08-07T03:32:28.414Z,15.52
2022-08-07T03:35:16.511Z,15.52
2022-08-07T03:37:53.370Z,15.49
2022-08-07T03:40:30.772Z,15.48
2022-08-07T03:43:10.065Z,15.50
2022-08-07T03:45:47.846Z,15.53
2022-08-07T03:48:17.798Z,15.53
2022-08-07T03:50:56.250Z,15.51
2022-08-07T03:54:01.945Z,15.50
2022-08-07T03:56:33.235Z,15.49
2022-08-07T03:59:10.115Z,15.53
2022-08-07T04:01:46.395Z,15.55
2022-08-07T04:04:17.763Z,15.56
2022-08-07T04:06:50.949Z,15.51
2022-08-07T04:09:23.371Z,15.47
2022-08-07T04:12:21.252Z,15.47
2022-08-07T04:14:46.153Z,15.48
2022-08-07T04:17:20.720Z,15.49
2022-08-07T04:19:54.355Z,15.50
2022-08-07T04:22:28.418Z,15.50
2022-08-07T04:25:01.336Z,15.80
2022-08-07T04:27:35.742Z,17.01
2022-08-07T04:30:36.008Z,18.49
2022-08-07T04:33:07.995Z,19.92
2022-08-07T04:35:38.886Z,20.92
2022-08-07T04:38:11.362Z,21.81
2022-08-07T04:40:52.457Z,22.60
2022-08-07T04:44:09.619Z,22.67
2022-08-07T04:47:04.141Z,21.74
2022-08-07T04:49:42.564Z,20.58
2022-08-07T04:52:53.675Z,19.72
2022-08-07T04:58:24.427Z,19.13
2022-08-07T05:02:08.704Z,21.63
2022-08-07T05:04:53.474Z,22.95
2022-08-07T05:07:51.455Z,24.04
2022-08-07T05:10:29.238Z,25.00
2022-08-07T05:14:44.355Z,25.52
2022-08-07T05:15:58.150Z,26.18
2022-08-07T05:18:30.574Z,26.74
2022-08-07T05:21:03.944Z,27.36
2022-08-07T05:23:59.483Z,27.83
2022-08-07T05:26:31.201Z,28.35
2022-08-07T05:29:06.442Z,28.92
2022-08-07T05:31:39.495Z,29.37
2022-08-07T05:34:16.016Z,29.69
2022-08-07T05:36:55.936Z,29.95
2022-08-07T05:40:13.581Z,29.81
2022-08-07T05:42:34.492Z,29.83
2022-08-07T05:45:26.042Z,29.74
2022-08-07T05:48:02.719Z,29.65
2022-08-07T05:50:43.326Z,29.74
2022-08-07T05:54:13.758Z,29.93
2022-08-07T05:56:05.879Z,29.43
2022-08-07T05:58:39.167Z,28.96
2022-08-07T06:01:11.207Z,29.36
2022-08-07T06:03:57.016Z,29.96
2022-08-07T06:06:32.853Z,30.64
2022-08-07T06:09:04.324Z,31.04
2022-08-07T06:11:34.790Z,31.60
2022-08-07T06:14:11.884Z,31.80
2022-08-07T06:16:50.765Z,31.98
2022-08-07T06:19:52.107Z,32.36
2022-08-07T06:22:23.929Z,32.68
2022-08-07T06:25:14.848Z,32.96
2022-08-07T06:28:01.419Z,33.04
2022-08-07T06:30:35.552Z,33.03
2022-08-07T06:33:10.041Z,32.94
2022-08-07T06:35:47.770Z,33.03
2022-08-07T06:38:33.269Z,33.19
2022-08-07T06:41:13.080Z,33.11
2022-08-07T06:43:46.388Z,33.03
2022-08-07T06:46:31.118Z,33.16
2022-08-07T06:49:04.555Z,33.03
2022-08-07T06:51:35.986Z,32.67
2022-08-07T06:55:31.566Z,32.75
2022-08-07T06:57:09.412Z,32.87
2022-08-07T07:00:12.996Z,32.84
2022-08-07T07:02:48.873Z,32.79
2022-08-07T07:06:02.788Z,32.42
2022-08-07T07:08:12.497Z,32.14
2022-08-07T07:10:47.626Z,32.18
2022-08-07T07:13:56.710Z,32.63
2022-08-07T07:16:30.563Z,33.15
2022-08-07T07:19:23.611Z,33.33
2022-08-07T07:22:05.328Z,33.45
2022-08-07T07:25:02.730Z,33.49
2022-08-07T07:27:58.549Z,33.16
2022-08-07T07:30:38.000Z,32.94
2022-08-07T07:33:12.130Z,32.64
2022-08-07T07:36:04.082Z,32.44
2022-08-07T07:38:33.359Z,32.35
2022-08-07T07:41:08.732Z,32.21
2022-08-07T07:44:14.787Z,32.42
2022-08-07T07:46:53.395Z,32.76
2022-08-07T07:50:35.221Z,32.41
2022-08-07T07:52:13.949Z,32.47
2022-08-07T07:54:51.074Z,32.31
2022-08-07T07:57:50.554Z,31.87
2022-08-07T08:00:20.827Z,32.03
2022-08-07T08:03:16.658Z,32.18
2022-08-07T08:06:01.820Z,31.81
2022-08-07T08:08:36.900Z,31.87
2022-08-07T08:11:08.408Z,32.13
2022-08-07T08:14:10.716Z,31.75
2022-08-07T08:16:50.198Z,31.33
2022-08-07T08:20:16.125Z,31.35
2022-08-07T08:22:33.029Z,31.68
2022-08-07T08:25:26.808Z,31.77
2022-08-07T08:28:16.870Z,31.61
2022-08-07T08:31:03.812Z,31.53
2022-08-07T08:33:36.320Z,31.30
2022-08-07T08:36:09.859Z,31.16
2022-08-07T08:38:43.521Z,30.81
2022-08-07T08:41:23.032Z,30.35
2022-08-07T08:44:07.495Z,30.33
2022-08-07T08:47:29.488Z,30.22
2022-08-07T08:50:39.081Z,29.70
2022-08-07T08:53:22.581Z,29.15
2022-08-07T08:55:54.304Z,28.59
2022-08-07T08:58:47.698Z,28.11
2022-08-07T09:01:40.060Z,27.68
2022-08-07T09:04:44.648Z,27.35
2022-08-07T09:07:45.957Z,27.11
2022-08-07T09:10:27.482Z,27.02
2022-08-07T09:13:10.533Z,26.97
2022-08-07T09:16:24.819Z,26.83
2022-08-07T09:19:07.349Z,26.56
2022-08-07T09:22:39.399Z,26.39
2022-08-07T09:25:11.978Z,26.58
2022-08-07T09:28:06.358Z,26.79
2022-08-07T09:31:04.421Z,26.65
2022-08-07T09:33:58.300Z,27.11
2022-08-07T09:36:37.309Z,27.64
2022-08-07T09:39:55.124Z,27.82
2022-08-07T09:42:39.060Z,27.66
2022-08-07T09:47:20.071Z,27.69
2022-08-07T09:48:55.983Z,28.05
2022-08-07T09:52:15.669Z,28.17
2022-08-07T09:54:47.913Z,27.64
2022-08-07T09:57:37.503Z,27.02
2022-08-07T10:00:16.447Z,26.94
2022-08-07T10:04:05.431Z,26.69
2022-08-07T10:06:29.244Z,26.32
2022-08-07T10:09:06.125Z,26.38
2022-08-07T10:12:02.288Z,26.31
2022-08-07T10:14:56.184Z,26.39
2022-08-07T10:18:12.467Z,25.96
2022-08-07T10:20:57.097Z,25.88
2022-08-07T10:24:05.083Z,25.91
2022-08-07T10:26:36.891Z,25.90
2022-08-07T10:29:45.844Z,26.06
2022-08-07T10:32:50.943Z,26.20
2022-08-07T10:35:55.065Z,25.97
2022-08-07T10:38:48.533Z,25.49
2022-08-07T10:41:51.680Z,24.76
2022-08-07T10:44:40.025Z,24.53
2022-08-07T10:47:51.346Z,24.21
2022-08-07T10:50:32.178Z,24.00
2022-08-07T10:53:44.893Z,23.89
2022-08-07T10:56:46.347Z,24.05
2022-08-07T10:59:45.363Z,24.45
2022-08-07T11:02:40.066Z,24.65
2022-08-07T11:05:50.522Z,24.59
2022-08-07T11:08:43.617Z,24.50
2022-08-07T11:11:22.992Z,24.23
2022-08-07T11:14:44.699Z,24.21
2022-08-07T11:17:07.376Z,24.25
2022-08-07T11:19:51.354Z,24.16
2022-08-07T11:22:37.197Z,24.23
2022-08-07T11:25:23.141Z,24.12
2022-08-07T11:28:04.641Z,23.93
2022-08-07T11:30:46.683Z,23.94
2022-08-07T11:33:58.610Z,23.94
2022-08-07T11:36:49.597Z,23.90
2022-08-07T11:40:00.207Z,23.95
2022-08-07T11:43:11.770Z,23.76
2022-08-07T11:46:06.503Z,23.56
2022-08-07T11:49:27.605Z,23.63
2022-08-07T11:52:29.283Z,23.77
2022-08-07T11:56:15.754Z,23.89
2022-08-07T11:58:33.833Z,23.88
2022-08-07T12:01:06.656Z,23.84
2022-08-07T12:03:54.591Z,23.78
2022-08-07T12:06:39.026Z,23.70
2022-08-07T12:09:23.306Z,23.51
2022-08-07T12:12:12.445Z,23.46
2022-08-07T12:15:05.234Z,23.48
2022-08-07T12:17:59.318Z,23.58
2022-08-07T12:20:34.863Z,23.33
2022-08-07T12:23:16.516Z,23.20
2022-08-07T12:26:23.614Z,23.18
2022-08-07T12:29:06.234Z,23.17
2022-08-07T12:32:04.655Z,23.07
2022-08-07T12:34:36.996Z,23.10
2022-08-07T12:37:08.702Z,23.23
2022-08-07T12:39:51.620Z,23.30
2022-08-07T12:42:27.490Z,23.39
2022-08-07T12:44:59.580Z,23.44
2022-08-07T12:47:44.067Z,23.41
2022-08-07T12:50:40.203Z,23.39
2022-08-07T12:54:03.117Z,23.38
2022-08-07T12:56:34.988Z,23.36
2022-08-07T12:59:08.330Z,23.59
2022-08-07T13:02:03.242Z,23.84
2022-08-07T13:05:01.147Z,24.05
2022-08-07T13:08:13.392Z,23.90
2022-08-07T13:10:59.421Z,23.84
2022-08-07T13:13:50.609Z,23.83
2022-08-07T13:16:46.901Z,23.81
2022-08-07T13:19:50.395Z,23.69
2022-08-07T13:22:30.423Z,23.54
2022-08-07T13:25:24.329Z,23.45
2022-08-07T13:28:10.861Z,23.35
2022-08-07T13:31:02.017Z,23.29
2022-08-07T13:34:29.851Z,23.24
2022-08-07T13:36:59.459Z,23.19
2022-08-07T13:40:35.061Z,23.20
2022-08-07T13:42:39.846Z,23.35
2022-08-07T13:46:07.891Z,23.30
2022-08-07T13:48:06.389Z,23.30
2022-08-07T13:50:44.765Z,23.28
2022-08-07T13:53:36.052Z,23.30
2022-08-07T13:56:35.375Z,23.31
2022-08-07T13:59:15.360Z,23.24
2022-08-07T14:01:51.153Z,23.17
2022-08-07T14:04:49.225Z,23.13
2022-08-07T14:07:21.447Z,23.17
2022-08-07T14:10:17.658Z,23.12
2022-08-07T14:12:57.130Z,23.03
2022-08-07T14:15:44.270Z,22.94
2022-08-07T14:18:29.845Z,22.92
2022-08-07T14:22:01.860Z,22.90
2022-08-07T14:24:22.970Z,22.98
2022-08-07T14:27:00.729Z,23.06
2022-08-07T14:30:06.613Z,23.08
2022-08-07T14:32:48.183Z,23.05
2022-08-07T14:35:44.956Z,23.04
2022-08-07T14:38:26.675Z,23.03
2022-08-07T14:41:05.657Z,23.12
2022-08-07T14:43:58.983Z,23.12
2022-08-07T14:46:32.547Z,23.06
2022-08-07T14:49:17.294Z,23.01
2022-08-07T14:54:44.536Z,23.14
2022-08-07T14:57:19.571Z,23.07
2022-08-07T15:00:06.997Z,22.96
2022-08-07T15:02:37.053Z,22.85
2022-08-07T15:05:19.591Z,22.74
2022-08-07T15:07:51.967Z,22.72
2022-08-07T15:13:19.360Z,22.68
2022-08-07T15:15:52.211Z,22.74
2022-08-07T15:18:35.735Z,22.82
2022-08-07T15:21:58.595Z,22.75
2022-08-07T15:25:14.364Z,22.77
2022-08-07T15:27:12.452Z,22.84
2022-08-07T15:30:04.796Z,22.80
2022-08-07T15:36:02.062Z,22.70
2022-08-07T15:38:18.370Z,22.61
2022-08-07T15:42:42.244Z,22.63
2022-08-07T15:44:04.784Z,22.75
2022-08-07T15:46:38.357Z,22.82
2022-08-07T15:49:15.093Z,22.86
2022-08-07T15:54:39.706Z,22.90
2022-08-07T15:57:27.878Z,22.80
2022-08-07T16:00:06.256Z,22.75
2022-08-07T16:02:49.998Z,22.71
2022-08-07T16:05:23.170Z,22.70
2022-08-07T16:08:31.347Z,22.79
2022-08-07T16:11:27.221Z,22.84
2022-08-07T16:14:19.910Z,22.78
2022-08-07T16:18:02.190Z,22.71
2022-08-07T16:20:33.612Z,22.66
2022-08-07T16:23:25.373Z,22.65
2022-08-07T16:26:34.553Z,22.64
2022-08-07T16:30:11.553Z,22.54
2022-08-07T16:32:35.808Z,22.58
2022-08-07T16:35:59.326Z,22.51
2022-08-07T16:39:02.194Z,22.43
2022-08-07T16:41:41.176Z,22.38
2022-08-07T16:45:13.967Z,22.31
2022-08-07T16:48:05.859Z,22.33
2022-08-07T16:51:07.345Z,22.32
2022-08-07T16:54:06.232Z,22.26
2022-08-07T16:56:55.007Z,22.24
2022-08-07T16:59:46.114Z,22.21
2022-08-07T17:02:53.517Z,22.20
2022-08-07T17:06:28.773Z,22.19
2022-08-07T17:10:07.195Z,22.15
2022-08-07T17:12:56.929Z,22.10
2022-08-07T17:15:57.069Z,22.14
2022-08-07T17:19:02.956Z,22.19
2022-08-07T17:21:53.709Z,22.20
2022-08-07T17:25:03.735Z,22.21
2022-08-07T17:28:32.442Z,22.16
2022-08-07T17:32:02.503Z,22.05
2022-08-07T17:35:51.306Z,21.94
2022-08-07T17:39:15.585Z,21.90
2022-08-07T17:42:06.766Z,21.86
2022-08-07T17:44:45.288Z,21.83
2022-08-07T17:47:37.928Z,21.78
2022-08-07T17:50:30.517Z,21.76
2022-08-07T17:53:59.845Z,21.74
2022-08-07T17:56:15.333Z,21.72
2022-08-07T17:58:54.415Z,21.69
2022-08-07T18:01:36.719Z,21.68
2022-08-07T18:04:38.505Z,21.64
2022-08-07T18:07:20.044Z,21.59
2022-08-07T18:10:05.915Z,21.48
2022-08-07T18:13:09.852Z,21.42
2022-08-07T18:15:53.470Z,21.32
2022-08-07T18:18:47.543Z,21.22
2022-08-07T18:21:51.619Z,21.13
2022-08-07T18:24:34.280Z,21.04
2022-08-07T18:27:17.395Z,20.95
2022-08-07T18:30:07.038Z,20.87
2022-08-07T18:32:55.065Z,20.77
2022-08-07T18:35:55.724Z,20.69
2022-08-07T18:38:56.383Z,20.63
2022-08-07T18:42:12.983Z,20.56
2022-08-07T18:45:44.819Z,20.49
2022-08-07T18:50:05.311Z,20.41
2022-08-07T18:52:35.499Z,20.34
2022-08-07T18:54:51.099Z,20.27
2022-08-07T18:58:00.468Z,20.21
2022-08-07T19:00:54.251Z,20.15
2022-08-07T19:03:37.779Z,20.10
2022-08-07T19:06:16.310Z,20.06
2022-08-07T19:09:09.432Z,20.03
2022-08-07T19:12:06.714Z,19.97
2022-08-07T19:15:01.012Z,19.92
2022-08-07T19:18:05.394Z,19.87
2022-08-07T19:21:08.347Z,19.83
2022-08-07T19:23:57.235Z,19.77
2022-08-07T19:27:09.033Z,19.71
2022-08-07T19:31:05.818Z,19.67
2022-08-07T19:32:26.587Z,19.63
2022-08-07T19:35:09.721Z,19.60
2022-08-07T19:37:56.475Z,19.55
2022-08-07T19:40:34.633Z,19.50
2022-08-07T19:43:21.223Z,19.47
2022-08-07T19:46:07.390Z,19.46
2022-08-07T19:48:42.173Z,19.44
2022-08-07T19:51:19.867Z,19.45
2022-08-07T19:54:31.864Z,19.46
2022-08-07T19:57:51.277Z,19.47
2022-08-07T19:59:41.558Z,19.45
2022-08-07T20:02:19.744Z,19.43
2022-08-07T20:04:51.997Z,19.40
2022-08-07T20:07:47.171Z,19.38
2022-08-07T20:10:38.176Z,19.36
2022-08-07T20:13:22.918Z,19.35
2022-08-07T20:15:58.338Z,19.32
2022-08-07T20:18:32.684Z,19.31
2022-08-07T20:21:21.989Z,19.28
2022-08-07T20:23:58.012Z,19.23
2022-08-07T20:26:38.945Z,19.20
2022-08-07T20:29:49.493Z,19.18
2022-08-07T20:32:11.642Z,19.17
2022-08-07T20:34:53.135Z,19.13
2022-08-07T20:37:37.115Z,19.10
2022-08-07T20:40:32.164Z,19.08
2022-08-07T20:43:09.388Z,19.06
2022-08-07T20:46:27.060Z,19.05
2022-08-07T20:48:31.120Z,19.09
2022-08-07T20:51:04.004Z,19.07
2022-08-07T20:54:03.491Z,19.01
2022-08-07T20:56:28.825Z,18.99
2022-08-07T20:59:01.377Z,18.97
2022-08-07T21:01:45.225Z,18.97
2022-08-07T21:04:26.423Z,18.99
2022-08-07T21:07:04.270Z,18.96
2022-08-07T21:09:52.437Z,18.89
2022-08-07T21:12:31.595Z,18.84
2022-08-07T21:15:05.047Z,18.72
2022-08-07T21:18:06.634Z,18.66
2022-08-07T21:20:29.571Z,18.59
2022-08-07T21:23:42.853Z,18.50
2022-08-07T21:26:59.825Z,18.46
2022-08-07T21:29:38.180Z,18.41
2022-08-07T21:32:49.565Z,18.40
2022-08-07T21:36:05.158Z,18.32
2022-08-07T21:38:35.967Z,18.29
2022-08-07T21:41:18.028Z,18.31
2022-08-07T21:44:14.231Z,18.33
2022-08-07T21:47:02.040Z,18.34
2022-08-07T21:50:02.426Z,18.32
2022-08-07T21:52:40.443Z,18.28
2022-08-07T21:55:27.826Z,18.22
2022-08-07T21:58:30.450Z,18.16
2022-08-07T22:01:14.072Z,18.04
2022-08-07T22:04:03.822Z,17.93
2022-08-07T22:06:38.652Z,17.87
2022-08-07T22:09:17.344Z,17.79
2022-08-07T22:11:52.974Z,17.76
2022-08-07T22:14:57.909Z,17.75
2022-08-07T22:17:35.875Z,17.67
2022-08-07T22:20:43.991Z,17.65
2022-08-07T22:23:11.184Z,17.67
2022-08-07T22:26:10.362Z,17.68
2022-08-07T22:29:17.446Z,17.69
2022-08-07T22:32:08.066Z,17.70
2022-08-07T22:34:56.062Z,17.69
2022-08-07T22:38:04.460Z,17.68
2022-08-07T22:41:00.035Z,17.65
2022-08-07T22:43:37.555Z,17.62
2022-08-07T22:47:02.621Z,17.57
2022-08-07T22:49:37.904Z,17.52
2022-08-07T22:52:37.252Z,17.50
2022-08-07T22:55:23.513Z,17.43
2022-08-07T22:58:35.366Z,17.29
2022-08-07T23:01:23.748Z,17.22
2022-08-07T23:04:30.707Z,17.19
2022-08-07T23:07:04.491Z,17.18
2022-08-07T23:10:41.236Z,17.22
2022-08-07T23:13:29.245Z,17.29
2022-08-07T23:16:46.470Z,17.33
2022-08-07T23:19:38.748Z,17.34
2022-08-07T23:22:29.013Z,17.32
2022-08-07T23:25:07.630Z,17.29
2022-08-07T23:28:22.924Z,17.21
2022-08-07T23:32:49.273Z,17.13
2022-08-07T23:35:07.252Z,17.09
2022-08-07T23:38:00.398Z,17.05
2022-08-07T23:40:49.392Z,17.07
2022-08-07T23:44:01.009Z,17.14
2022-08-07T23:46:43.268Z,17.16
2022-08-07T23:49:49.891Z,17.19
2022-08-07T23:53:08.781Z,17.17
2022-08-07T23:55:52.465Z,17.15
2022-08-07T23:59:10.790Z,17.14
